createdAt,value
2017-01-09T00:00:49.061Z,23.24
2017-01-09T00:01:48.999Z,23.25
2017-01-09T00:02:48.932Z,23.27
2017-01-09T00:03:48.873Z,23.21
2017-01-09T00:04:48.815Z,23.23
2017-01-09T00:05:48.747Z,23.25
2017-01-09T00:06:48.684Z,23.23
2017-01-09T00:07:48.633Z,23.21
2017-01-09T00:08:48.560Z,23.18
2017-01-09T00:09:48.501Z,23.2
2017-01-09T00:10:48.439Z,23.23
2017-01-09T00:11:48.375Z,23.28
2017-01-09T00:12:48.313Z,23.25
2017-01-09T00:13:48.255Z,23.27
2017-01-09T00:14:48.188Z,23.23
2017-01-09T00:15:48.126Z,23.27
2017-01-09T00:16:48.069Z,23.27
2017-01-09T00:17:48.006Z,23.24
2017-01-09T00:18:47.942Z,23.18
2017-01-09T00:19:47.881Z,23.2
2017-01-09T00:20:47.819Z,23.21
2017-01-09T00:21:47.755Z,23.2
2017-01-09T00:22:47.694Z,23.18
2017-01-09T00:23:47.631Z,23.2
2017-01-09T00:24:47.569Z,23.25
2017-01-09T00:25:47.506Z,23.24
2017-01-09T00:26:47.454Z,23.23
2017-01-09T00:27:47.387Z,23.23
2017-01-09T00:28:47.321Z,23.18
2017-01-09T00:29:47.270Z,23.17
2017-01-09T00:30:47.198Z,23.25
2017-01-09T00:31:47.136Z,23.24
2017-01-09T00:32:47.076Z,23.23
2017-01-09T00:33:47.010Z,23.21
2017-01-09T00:34:46.953Z,23.23
2017-01-09T00:35:46.885Z,23.2
2017-01-09T00:36:47.027Z,23.18
2017-01-09T00:37:46.762Z,23.21
2017-01-09T00:38:46.698Z,23.2
2017-01-09T00:39:46.640Z,23.23
2017-01-09T00:40:46.580Z,23.23
2017-01-09T00:41:46.522Z,23.21
2017-01-09T00:42:46.453Z,23.18
2017-01-09T00:43:46.391Z,23.24
2017-01-09T00:44:46.329Z,23.23
2017-01-09T00:45:46.265Z,23.2
2017-01-09T00:46:46.207Z,23.2
2017-01-09T00:47:46.143Z,23.27
2017-01-09T00:48:46.081Z,23.15
2017-01-09T00:49:46.018Z,23.24
2017-01-09T00:50:45.955Z,23.25
2017-01-09T00:51:45.894Z,23.2
2017-01-09T00:52:45.835Z,23.24
2017-01-09T00:53:45.770Z,23.12
2017-01-09T00:54:45.703Z,23.23
2017-01-09T00:55:45.801Z,23.23
2017-01-09T00:56:45.585Z,23.17
2017-01-09T00:57:45.523Z,23.18
2017-01-09T00:58:45.456Z,23.15
2017-01-09T00:59:45.795Z,23.18
2017-01-09T01:01:30.294Z,23.12
2017-01-09T01:02:15.369Z,23.15
2017-01-09T01:03:15.281Z,23.15
2017-01-09T01:04:15.218Z,23.13
2017-01-09T01:05:15.156Z,23.13
2017-01-09T01:06:15.093Z,23.2
2017-01-09T01:07:15.030Z,23.17
2017-01-09T01:08:14.971Z,23.18
2017-01-09T01:09:14.906Z,23.12
2017-01-09T01:10:14.846Z,23.1
2017-01-09T01:11:14.783Z,23.05
2017-01-09T01:12:14.720Z,23.1
2017-01-09T01:13:14.657Z,23.17
2017-01-09T01:14:14.602Z,23.23
2017-01-09T01:15:14.561Z,23.2
2017-01-09T01:16:14.863Z,23.13
2017-01-09T01:17:14.412Z,23.15
2017-01-09T01:18:14.742Z,23.15
2017-01-09T01:19:14.287Z,23.18
2017-01-09T01:20:14.231Z,23.21
2017-01-09T01:21:14.161Z,23.13
2017-01-09T01:22:14.102Z,23.18
2017-01-09T01:23:14.055Z,23.12
2017-01-09T01:24:13.970Z,23.12
2017-01-09T01:25:13.915Z,23.12
2017-01-09T01:26:13.853Z,23.15
2017-01-09T01:27:13.787Z,23.09
2017-01-09T01:28:13.734Z,23.17
2017-01-09T01:29:13.661Z,23.15
2017-01-09T01:30:13.601Z,23.12
2017-01-09T01:31:13.538Z,23.13
2017-01-09T01:32:13.478Z,23.1
2017-01-09T01:33:13.417Z,23.13
2017-01-09T01:34:13.352Z,23.13
2017-01-09T01:35:13.290Z,23.15
2017-01-09T01:36:13.229Z,23.17
2017-01-09T01:37:13.166Z,23.18
2017-01-09T01:38:13.102Z,23.1
2017-01-09T01:39:13.077Z,23.12
2017-01-09T01:40:12.979Z,23.15
2017-01-09T01:41:12.925Z,23.18
2017-01-09T01:42:12.858Z,23.17
2017-01-09T01:43:12.793Z,23.1
2017-01-09T01:44:12.732Z,23.15
2017-01-09T01:45:12.669Z,23.13
2017-01-09T01:46:12.611Z,23.15
2017-01-09T01:47:12.548Z,23.13
2017-01-09T01:48:12.480Z,23.12
2017-01-09T01:49:12.418Z,23.13
2017-01-09T01:50:12.359Z,23.13
2017-01-09T01:51:12.295Z,23.13
2017-01-09T01:52:12.234Z,23.17
2017-01-09T01:53:12.173Z,23.1
2017-01-09T01:54:12.111Z,23.08
2017-01-09T01:55:12.046Z,23.09
2017-01-09T01:56:12.376Z,23.13
2017-01-09T01:57:11.922Z,23.13
2017-01-09T01:58:11.860Z,23.08
2017-01-09T01:59:11.800Z,23.12
2017-01-09T02:00:11.742Z,23.13
2017-01-09T02:01:11.675Z,23.12
2017-01-09T02:02:11.614Z,23.13
2017-01-09T02:03:11.565Z,23.09
2017-01-09T02:04:11.491Z,23.1
2017-01-09T02:05:11.427Z,23.15
2017-01-09T02:06:11.363Z,23.13
2017-01-09T02:07:11.694Z,23.1
2017-01-09T02:08:11.246Z,23.09
2017-01-09T02:09:11.568Z,23.06
2017-01-09T02:10:11.115Z,23.09
2017-01-09T02:11:11.055Z,23.13
2017-01-09T02:12:10.999Z,23.15
2017-01-09T02:13:10.949Z,23.15
2017-01-09T02:14:10.868Z,23.17
2017-01-09T02:15:10.808Z,23.13
2017-01-09T02:16:10.749Z,23.1
2017-01-09T02:17:10.679Z,23.12
2017-01-09T02:18:10.619Z,23.12
2017-01-09T02:19:10.560Z,23.1
2017-01-09T02:20:10.496Z,23.13
2017-01-09T02:21:10.434Z,23.13
2017-01-09T02:22:10.371Z,23.15
2017-01-09T02:23:10.310Z,23.1
2017-01-09T02:24:10.249Z,23.15
2017-01-09T02:25:10.183Z,23.09
2017-01-09T02:26:10.121Z,23.13
2017-01-09T02:27:10.063Z,23.12
2017-01-09T02:28:09.998Z,23.12
2017-01-09T02:29:09.942Z,23.12
2017-01-09T02:30:09.874Z,23.18
2017-01-09T02:31:09.816Z,23.12
2017-01-09T02:32:09.754Z,23.1
2017-01-09T02:33:09.688Z,23.18
2017-01-09T02:34:10.021Z,23.15
2017-01-09T02:35:09.568Z,23.17
2017-01-09T02:36:09.507Z,23.15
2017-01-09T02:37:09.439Z,23.18
2017-01-09T02:38:09.393Z,23.1
2017-01-09T02:39:09.319Z,23.21
2017-01-09T02:40:09.274Z,23.1
2017-01-09T02:41:09.194Z,23.17
2017-01-09T02:42:09.134Z,23.15
2017-01-09T02:43:09.279Z,23.13
2017-01-09T02:44:09.008Z,23.12
2017-01-09T02:45:08.946Z,23.1
2017-01-09T02:46:08.886Z,23.17
2017-01-09T02:47:08.822Z,23.12
2017-01-09T02:48:08.760Z,23.12
2017-01-09T02:49:08.696Z,23.17
2017-01-09T02:50:08.638Z,23.21
2017-01-09T02:51:08.574Z,23.15
2017-01-09T02:52:08.513Z,23.15
2017-01-09T02:53:08.456Z,23.13
2017-01-09T02:54:08.385Z,23.12
2017-01-09T02:55:08.328Z,23.18
2017-01-09T02:56:08.276Z,23.17
2017-01-09T02:57:08.200Z,23.15
2017-01-09T02:58:08.138Z,23.2
2017-01-09T02:59:08.082Z,23.18
2017-01-09T03:00:08.016Z,23.18
2017-01-09T03:01:07.965Z,23.18
2017-01-09T03:02:07.891Z,23.13
2017-01-09T03:03:07.833Z,23.13
2017-01-09T03:04:07.767Z,23.2
2017-01-09T03:05:07.707Z,23.15
2017-01-09T03:06:07.642Z,23.15
2017-01-09T03:07:07.583Z,23.12
2017-01-09T03:08:07.518Z,23.21
2017-01-09T03:09:07.457Z,23.18
2017-01-09T03:10:07.396Z,23.21
2017-01-09T03:11:07.333Z,23.13
2017-01-09T03:12:07.271Z,23.24
2017-01-09T03:13:07.209Z,23.13
2017-01-09T03:14:07.145Z,23.24
2017-01-09T03:15:07.088Z,23.17
2017-01-09T03:16:07.022Z,23.17
2017-01-09T03:17:06.962Z,23.17
2017-01-09T03:18:06.900Z,23.18
2017-01-09T03:19:06.840Z,23.21
2017-01-09T03:20:06.773Z,23.24
2017-01-09T03:21:06.712Z,23.2
2017-01-09T03:22:06.654Z,23.25
2017-01-09T03:23:06.589Z,23.21
2017-01-09T03:24:06.528Z,23.21
2017-01-09T03:25:06.465Z,23.2
2017-01-09T03:26:06.405Z,23.23
2017-01-09T03:27:06.340Z,23.23
2017-01-09T03:28:06.281Z,23.18
2017-01-09T03:29:06.214Z,23.21
2017-01-09T03:30:06.156Z,23.23
2017-01-09T03:31:06.092Z,23.2
2017-01-09T03:32:06.029Z,23.23
2017-01-09T03:33:05.967Z,23.23
2017-01-09T03:34:05.908Z,23.23
2017-01-09T03:35:05.846Z,23.23
2017-01-09T03:36:05.784Z,23.18
2017-01-09T03:37:05.727Z,23.18
2017-01-09T03:38:05.661Z,23.21
2017-01-09T03:39:05.596Z,23.18
2017-01-09T03:40:05.538Z,23.23
2017-01-09T03:41:05.473Z,23.31
2017-01-09T03:42:05.414Z,23.18
2017-01-09T03:43:05.356Z,23.23
2017-01-09T03:44:05.294Z,23.13
2017-01-09T03:45:05.224Z,23.25
2017-01-09T03:46:05.167Z,23.25
2017-01-09T03:47:05.497Z,23.13
2017-01-09T03:48:05.042Z,23.18
2017-01-09T03:49:04.977Z,23.24
2017-01-09T03:50:04.915Z,23.21
2017-01-09T03:51:04.864Z,23.18
2017-01-09T03:52:04.793Z,23.23
2017-01-09T03:53:05.130Z,23.23
2017-01-09T03:54:04.670Z,23.15
2017-01-09T03:55:04.604Z,23.24
2017-01-09T03:56:04.546Z,23.2
2017-01-09T03:57:04.509Z,23.18
2017-01-09T03:58:04.420Z,23.23
2017-01-09T03:59:04.363Z,23.23
2017-01-09T04:00:04.309Z,23.24
2017-01-09T04:01:04.235Z,23.2
2017-01-09T04:02:04.177Z,23.21
2017-01-09T04:03:04.113Z,23.24
2017-01-09T04:04:04.061Z,23.27
2017-01-09T04:05:03.993Z,23.17
2017-01-09T04:06:03.944Z,23.24
2017-01-09T04:07:03.864Z,23.2
2017-01-09T04:08:03.805Z,23.25
2017-01-09T04:09:03.740Z,23.24
2017-01-09T04:10:03.699Z,23.23
2017-01-09T04:11:03.621Z,23.25
2017-01-09T04:12:03.558Z,23.2
2017-01-09T04:13:03.495Z,23.24
2017-01-09T04:14:03.432Z,23.21
2017-01-09T04:15:03.396Z,23.2
2017-01-09T04:16:03.318Z,23.21
2017-01-09T04:17:03.248Z,23.24
2017-01-09T04:18:03.184Z,23.2
2017-01-09T04:19:03.514Z,23.27
2017-01-09T04:20:03.066Z,23.2
2017-01-09T04:21:03.000Z,23.18
2017-01-09T04:22:02.937Z,23.25
2017-01-09T04:23:02.881Z,23.27
2017-01-09T04:24:02.823Z,23.25
2017-01-09T04:25:02.753Z,23.24
2017-01-09T04:26:02.693Z,23.23
2017-01-09T04:27:02.634Z,23.25
2017-01-09T04:28:02.568Z,23.31
2017-01-09T04:29:02.507Z,23.28
2017-01-09T04:30:02.443Z,23.36
2017-01-09T04:31:02.383Z,23.25
2017-01-09T04:32:02.316Z,23.24
2017-01-09T04:33:02.259Z,23.31
2017-01-09T04:34:02.590Z,23.2
2017-01-09T04:35:02.144Z,23.28
2017-01-09T04:36:02.082Z,23.28
2017-01-09T04:37:02.012Z,23.27
2017-01-09T04:38:02.370Z,23.27
2017-01-09T04:39:01.891Z,23.25
2017-01-09T04:40:01.824Z,23.28
2017-01-09T04:41:01.764Z,23.24
2017-01-09T04:42:01.705Z,23.25
2017-01-09T04:43:01.642Z,23.25
2017-01-09T04:44:01.578Z,23.27
2017-01-09T04:45:01.906Z,23.28
2017-01-09T04:46:01.466Z,23.37
2017-01-09T04:47:01.403Z,23.36
2017-01-09T04:48:01.332Z,23.24
2017-01-09T04:49:01.280Z,23.27
2017-01-09T04:50:01.207Z,23.25
2017-01-09T04:51:01.145Z,23.31
2017-01-09T04:52:01.084Z,23.32
2017-01-09T04:53:01.023Z,23.28
2017-01-09T04:54:00.991Z,23.27
2017-01-09T04:55:00.894Z,23.32
2017-01-09T04:56:00.834Z,23.23
2017-01-09T04:57:00.775Z,23.34
2017-01-09T04:58:00.713Z,23.24
2017-01-09T04:59:00.650Z,23.37
2017-01-09T05:00:00.591Z,23.36
2017-01-09T05:01:00.536Z,23.32
2017-01-09T05:02:00.481Z,23.21
2017-01-09T05:03:00.400Z,23.23
2017-01-09T05:04:00.342Z,23.23
2017-01-09T05:05:00.277Z,23.31
2017-01-09T05:06:00.225Z,23.25
2017-01-09T05:07:00.189Z,23.25
2017-01-09T05:08:00.094Z,23.27
2017-01-09T05:09:00.031Z,23.21
2017-01-09T05:09:59.970Z,23.25
2017-01-09T05:10:59.908Z,23.23
2017-01-09T05:11:59.845Z,23.27
2017-01-09T05:12:59.808Z,23.31
2017-01-09T05:13:59.719Z,23.25
2017-01-09T05:14:59.659Z,23.28
2017-01-09T05:15:59.606Z,23.23
2017-01-09T05:16:59.532Z,23.24
2017-01-09T05:17:59.470Z,23.24
2017-01-09T05:18:59.414Z,23.28
2017-01-09T05:19:59.349Z,23.28
2017-01-09T05:20:59.287Z,23.27
2017-01-09T05:21:59.231Z,23.24
2017-01-09T05:22:59.164Z,23.21
2017-01-09T05:23:59.491Z,23.21
2017-01-09T05:24:59.039Z,23.24
2017-01-09T05:25:58.980Z,23.21
2017-01-09T05:26:58.923Z,23.23
2017-01-09T05:27:58.856Z,23.23
2017-01-09T05:28:58.793Z,23.23
2017-01-09T05:29:58.731Z,23.25
2017-01-09T05:30:58.665Z,23.25
2017-01-09T05:31:58.604Z,23.27
2017-01-09T05:32:58.541Z,23.23
2017-01-09T05:33:58.480Z,23.2
2017-01-09T05:34:58.418Z,23.21
2017-01-09T05:35:58.750Z,23.23
2017-01-09T05:36:58.687Z,23.25
2017-01-09T05:37:58.234Z,23.24
2017-01-09T05:38:58.176Z,23.23
2017-01-09T05:39:58.109Z,23.24
2017-01-09T05:40:58.054Z,23.23
2017-01-09T05:41:57.985Z,23.23
2017-01-09T05:42:57.921Z,23.24
2017-01-09T05:43:57.864Z,23.13
2017-01-09T05:44:57.799Z,23.24
2017-01-09T05:45:57.736Z,23.23
2017-01-09T05:46:57.676Z,23.21
2017-01-09T05:47:57.611Z,23.21
2017-01-09T05:48:57.550Z,23.21
2017-01-09T05:49:57.489Z,23.21
2017-01-09T05:50:57.422Z,23.17
2017-01-09T05:51:57.366Z,23.2
2017-01-09T05:52:57.301Z,23.25
2017-01-09T05:53:57.250Z,23.18
2017-01-09T05:54:57.181Z,23.23
2017-01-09T05:55:57.511Z,23.23
2017-01-09T05:56:57.051Z,23.2
2017-01-09T05:57:56.990Z,23.24
2017-01-09T05:58:56.928Z,23.21
2017-01-09T05:59:56.864Z,23.13
2017-01-09T06:00:56.816Z,23.2
2017-01-09T06:01:56.760Z,23.15
2017-01-09T06:02:56.678Z,23.2
2017-01-09T06:03:56.623Z,23.13
2017-01-09T06:04:56.557Z,23.21
2017-01-09T06:05:56.491Z,23.18
2017-01-09T06:06:56.428Z,23.15
2017-01-09T06:07:56.376Z,23.17
2017-01-09T06:08:56.305Z,23.15
2017-01-09T06:09:56.246Z,23.21
2017-01-09T06:10:56.179Z,23.18
2017-01-09T06:11:56.119Z,23.2
2017-01-09T06:12:56.060Z,23.13
2017-01-09T06:13:56.004Z,23.13
2017-01-09T06:14:55.943Z,23.1
2017-01-09T06:15:55.874Z,23.17
2017-01-09T06:16:55.811Z,23.12
2017-01-09T06:17:55.746Z,23.15
2017-01-09T06:18:55.680Z,23.08
2017-01-09T06:19:55.623Z,23.15
2017-01-09T06:20:55.560Z,23.15
2017-01-09T06:21:55.501Z,23.15
2017-01-09T06:22:55.433Z,23.12
2017-01-09T06:23:55.374Z,23.13
2017-01-09T06:24:55.321Z,23.15
2017-01-09T06:25:55.250Z,23.13
2017-01-09T06:26:55.192Z,23.09
2017-01-09T06:27:55.125Z,23.15
2017-01-09T06:28:55.082Z,23.1
2017-01-09T06:29:55.002Z,23.09
2017-01-09T06:30:54.950Z,23.09
2017-01-09T06:31:54.873Z,23.12
2017-01-09T06:32:54.813Z,23.1
2017-01-09T06:33:54.754Z,23.1
2017-01-09T06:34:54.688Z,23.13
2017-01-09T06:35:54.627Z,23.17
2017-01-09T06:36:54.563Z,23.09
2017-01-09T06:37:54.504Z,23.1
2017-01-09T06:38:54.440Z,23.08
2017-01-09T06:39:54.379Z,23.13
2017-01-09T06:40:54.314Z,23.05
2017-01-09T06:41:54.258Z,23.09
2017-01-09T06:42:54.194Z,23.13
2017-01-09T06:43:54.136Z,23.08
2017-01-09T06:44:54.098Z,23.09
2017-01-09T06:45:54.003Z,23.1
2017-01-09T06:46:53.950Z,23.08
2017-01-09T06:47:53.892Z,23.08
2017-01-09T06:48:53.816Z,23.05
2017-01-09T06:49:53.757Z,23.09
2017-01-09T06:50:53.691Z,23.03
2017-01-09T06:51:53.630Z,23.06
2017-01-09T06:52:53.569Z,23.08
2017-01-09T06:53:53.507Z,23.03
2017-01-09T06:54:53.445Z,23.05
2017-01-09T06:55:53.381Z,23.02
2017-01-09T06:56:53.325Z,23.03
2017-01-09T06:57:53.254Z,23.02
2017-01-09T06:58:53.193Z,23.06
2017-01-09T06:59:53.535Z,23.02
2017-01-09T07:00:53.070Z,23.05
2017-01-09T07:01:53.008Z,23.05
2017-01-09T07:02:52.942Z,23
2017-01-09T07:03:52.885Z,23.06
2017-01-09T07:04:53.212Z,23.02
2017-01-09T07:05:52.760Z,23.03
2017-01-09T07:06:52.697Z,23.02
2017-01-09T07:07:52.643Z,23.08
2017-01-09T07:08:52.575Z,23.06
2017-01-09T07:09:52.512Z,23.03
2017-01-09T07:10:52.446Z,23.03
2017-01-09T07:11:52.384Z,23.06
2017-01-09T07:12:52.322Z,23.03
2017-01-09T07:13:52.278Z,23.08
2017-01-09T07:14:52.198Z,23.02
2017-01-09T07:15:52.135Z,23.1
2017-01-09T07:16:52.078Z,23.06
2017-01-09T07:17:52.019Z,23.05
2017-01-09T07:18:51.947Z,23.1
2017-01-09T07:19:51.888Z,23.15
2017-01-09T07:20:51.827Z,23.12
2017-01-09T07:21:51.773Z,23.12
2017-01-09T07:22:51.718Z,23.17
2017-01-09T07:23:51.654Z,23.17
2017-01-09T07:24:51.593Z,23.17
2017-01-09T07:25:51.518Z,23.2
2017-01-09T07:26:51.454Z,23.17
2017-01-09T07:27:51.392Z,23.21
2017-01-09T07:28:51.326Z,23.2
2017-01-09T07:29:51.267Z,23.24
2017-01-09T07:30:51.202Z,23.24
2017-01-09T07:31:51.155Z,23.25
2017-01-09T07:32:51.080Z,23.21
2017-01-09T07:33:51.023Z,23.25
2017-01-09T07:34:50.962Z,23.25
2017-01-09T07:35:50.895Z,23.23
2017-01-09T07:36:50.840Z,23.24
2017-01-09T07:37:50.773Z,23.25
2017-01-09T07:38:50.709Z,23.23
2017-01-09T07:39:50.668Z,23.24
2017-01-09T07:40:50.596Z,23.27
2017-01-09T07:41:50.526Z,23.23
2017-01-09T07:42:50.463Z,23.25
2017-01-09T07:43:50.406Z,23.23
2017-01-09T07:44:50.337Z,23.27
2017-01-09T07:45:50.276Z,23.21
2017-01-09T07:46:50.221Z,23.2
2017-01-09T07:47:50.174Z,23.27
2017-01-09T07:48:50.091Z,23.24
2017-01-09T07:49:50.034Z,23.32
2017-01-09T07:50:49.967Z,23.31
2017-01-09T07:51:49.908Z,23.31
2017-01-09T07:52:49.952Z,23.24
2017-01-09T07:53:49.801Z,23.27
2017-01-09T07:54:49.722Z,23.32
2017-01-09T07:55:49.655Z,23.25
2017-01-09T07:56:49.605Z,23.23
2017-01-09T07:57:49.533Z,23.27
2017-01-09T07:58:49.473Z,23.27
2017-01-09T07:59:49.415Z,23.31
2017-01-09T08:00:49.594Z,23.36
2017-01-09T08:01:49.286Z,23.27
2017-01-09T08:02:49.228Z,23.39
2017-01-09T08:03:49.176Z,23.28
2017-01-09T08:04:49.101Z,23.37
2017-01-09T08:05:49.066Z,23.27
2017-01-09T08:06:48.980Z,23.32
2017-01-09T08:07:48.926Z,23.41
2017-01-09T08:08:48.856Z,23.28
2017-01-09T08:09:48.793Z,23.4
2017-01-09T08:10:48.737Z,23.27
2017-01-09T08:11:48.677Z,23.31
2017-01-09T08:12:48.613Z,23.28
2017-01-09T08:13:48.547Z,23.31
2017-01-09T08:14:48.507Z,23.37
2017-01-09T08:15:48.419Z,23.34
2017-01-09T08:16:48.359Z,23.39
2017-01-09T08:17:48.297Z,23.31
2017-01-09T08:18:48.245Z,23.28
2017-01-09T08:19:48.173Z,23.28
2017-01-09T08:20:48.115Z,23.31
2017-01-09T08:21:48.054Z,23.39
2017-01-09T08:22:47.998Z,23.31
2017-01-09T08:23:47.925Z,23.36
2017-01-09T08:24:47.865Z,23.39
2017-01-09T08:25:47.800Z,23.32
2017-01-09T08:26:47.737Z,23.31
2017-01-09T08:27:48.091Z,23.31
2017-01-09T08:28:47.615Z,23.46
2017-01-09T08:29:47.554Z,23.34
2017-01-09T08:30:47.893Z,23.28
2017-01-09T08:31:47.447Z,23.28
2017-01-09T08:32:47.371Z,23.34
2017-01-09T08:33:47.313Z,23.28
2017-01-09T08:34:47.254Z,23.37
2017-01-09T08:35:47.184Z,23.28
2017-01-09T08:36:47.127Z,23.28
2017-01-09T08:37:47.454Z,23.4
2017-01-09T08:38:47.028Z,23.32
2017-01-09T08:39:46.932Z,23.31
2017-01-09T08:41:01.911Z,23.37
2017-01-09T08:41:46.809Z,23.39
2017-01-09T08:42:46.752Z,23.27
2017-01-09T08:43:46.688Z,23.28
2017-01-09T08:44:46.637Z,23.28
2017-01-09T08:45:46.571Z,23.28
2017-01-09T08:47:01.390Z,23.36
2017-01-09T08:47:46.441Z,23.27
2017-01-09T08:48:46.377Z,23.25
2017-01-09T08:49:46.317Z,23.25
2017-01-09T08:50:46.258Z,23.28
2017-01-09T08:51:46.189Z,23.31
2017-01-09T08:52:46.138Z,23.25
2017-01-09T08:53:46.070Z,23.39
2017-01-09T08:54:46.016Z,23.25
2017-01-09T08:55:45.951Z,23.36
2017-01-09T08:56:45.883Z,23.32
2017-01-09T08:57:45.822Z,23.31
2017-01-09T08:58:45.758Z,23.31
2017-01-09T08:59:45.698Z,23.24
2017-01-09T09:00:45.855Z,23.27
2017-01-09T09:01:45.574Z,23.34
2017-01-09T09:02:45.511Z,23.27
2017-01-09T09:03:45.450Z,23.34
2017-01-09T09:04:45.389Z,23.31
2017-01-09T09:05:45.334Z,23.24
2017-01-09T09:06:45.262Z,23.27
2017-01-09T09:07:45.206Z,23.27
2017-01-09T09:08:45.140Z,23.23
2017-01-09T09:09:45.102Z,23.25
2017-01-09T09:10:45.025Z,23.27
2017-01-09T09:11:44.966Z,23.27
2017-01-09T09:12:44.900Z,23.28
2017-01-09T09:13:44.828Z,23.23
2017-01-09T09:14:44.770Z,23.24
2017-01-09T09:15:44.714Z,23.23
2017-01-09T09:16:44.646Z,23.25
2017-01-09T09:17:44.580Z,23.24
2017-01-09T09:18:44.519Z,23.21
2017-01-09T09:19:44.456Z,23.24
2017-01-09T09:20:44.405Z,23.21
2017-01-09T09:21:44.333Z,23.24
2017-01-09T09:22:44.279Z,23.23
2017-01-09T09:23:44.223Z,23.25
2017-01-09T09:24:44.147Z,23.17
2017-01-09T09:25:44.084Z,23.2
2017-01-09T09:26:44.019Z,23.21
2017-01-09T09:27:43.966Z,23.23
2017-01-09T09:28:43.909Z,23.24
2017-01-09T09:29:44.239Z,23.21
2017-01-09T09:30:43.775Z,23.24
2017-01-09T09:31:43.710Z,23.2
2017-01-09T09:32:43.650Z,23.21
2017-01-09T09:33:43.608Z,23.24
2017-01-09T09:34:43.540Z,23.27
2017-01-09T09:35:43.880Z,23.17
2017-01-09T09:36:43.815Z,23.23
2017-01-09T09:37:43.354Z,23.17
2017-01-09T09:38:43.273Z,23.24
2017-01-09T09:39:43.226Z,23.24
2017-01-09T09:40:43.174Z,23.21
2017-01-09T09:41:43.100Z,23.25
2017-01-09T09:42:43.037Z,23.18
2017-01-09T09:43:42.966Z,23.27
2017-01-09T09:44:42.905Z,23.2
2017-01-09T09:45:42.861Z,23.18
2017-01-09T09:46:42.790Z,23.24
2017-01-09T09:47:42.733Z,23.24
2017-01-09T09:48:43.047Z,23.25
2017-01-09T09:49:42.590Z,23.21
2017-01-09T09:50:42.560Z,23.21
2017-01-09T09:51:42.470Z,23.17
2017-01-09T09:52:42.418Z,23.2
2017-01-09T09:53:42.347Z,23.21
2017-01-09T09:54:42.285Z,23.2
2017-01-09T09:55:42.226Z,23.13
2017-01-09T09:56:42.162Z,23.23
2017-01-09T09:57:42.101Z,23.18
2017-01-09T09:58:42.038Z,23.15
2017-01-09T09:59:41.973Z,23.13
2017-01-09T10:00:41.920Z,23.23
2017-01-09T10:01:41.849Z,23.13
2017-01-09T10:02:41.786Z,23.15
2017-01-09T10:03:41.728Z,23.12
2017-01-09T10:04:41.660Z,23.18
2017-01-09T10:05:41.601Z,23.13
2017-01-09T10:06:41.538Z,23.12
2017-01-09T10:07:41.472Z,23.18
2017-01-09T10:08:41.434Z,23.12
2017-01-09T10:09:41.353Z,23.12
2017-01-09T10:10:56.326Z,23.1
2017-01-09T10:11:41.228Z,23.13
2017-01-09T10:12:41.166Z,23.12
2017-01-09T10:13:41.104Z,23.1
2017-01-09T10:14:41.040Z,23.17
2017-01-09T10:15:40.983Z,23.12
2017-01-09T10:16:40.927Z,23.15
2017-01-09T10:17:40.865Z,23.12
2017-01-09T10:18:40.791Z,23.17
2017-01-09T10:19:40.728Z,23.09
2017-01-09T10:20:41.058Z,23.1
2017-01-09T10:21:40.605Z,23.13
2017-01-09T10:22:40.543Z,23.17
2017-01-09T10:23:40.486Z,23.13
2017-01-09T10:24:40.419Z,23.09
2017-01-09T10:25:40.749Z,23.18
2017-01-09T10:26:40.575Z,23.18
2017-01-09T10:27:40.236Z,23.17
2017-01-09T10:28:40.173Z,23.09
2017-01-09T10:29:40.107Z,23.1
2017-01-09T10:30:40.060Z,23.18
2017-01-09T10:31:39.993Z,23.1
2017-01-09T10:32:39.923Z,23.15
2017-01-09T10:33:39.872Z,23.15
2017-01-09T10:34:39.809Z,23.15
2017-01-09T10:35:39.740Z,23.13
2017-01-09T10:36:39.677Z,23.17
2017-01-09T10:37:39.611Z,23.12
2017-01-09T10:38:39.555Z,23.13
2017-01-09T10:39:39.489Z,23.15
2017-01-09T10:40:39.428Z,23.18
2017-01-09T10:41:39.366Z,23.1
2017-01-09T10:42:39.302Z,23.12
2017-01-09T10:43:39.455Z,23.13
2017-01-09T10:44:39.177Z,23.17
2017-01-09T10:45:39.116Z,23.17
2017-01-09T10:46:39.456Z,23.15
2017-01-09T10:47:38.993Z,23.17
2017-01-09T10:48:38.938Z,23.13
2017-01-09T10:49:38.868Z,23.15
2017-01-09T10:50:38.808Z,23.18
2017-01-09T10:51:38.745Z,23.15
2017-01-09T10:52:38.685Z,23.17
2017-01-09T10:53:38.622Z,23.2
2017-01-09T10:54:38.557Z,23.13
2017-01-09T10:55:38.496Z,23.18
2017-01-09T10:56:38.439Z,23.06
2017-01-09T10:57:38.370Z,23.18
2017-01-09T10:58:38.311Z,23.18
2017-01-09T10:59:38.246Z,23.15
2017-01-09T11:00:38.187Z,23.13
2017-01-09T11:01:38.124Z,23.13
2017-01-09T11:02:38.449Z,23.09
2017-01-09T11:03:37.998Z,23.15
2017-01-09T11:04:37.937Z,23.12
2017-01-09T11:05:37.875Z,23.13
2017-01-09T11:06:37.815Z,23.12
2017-01-09T11:07:37.755Z,23.1
2017-01-09T11:08:37.688Z,23.15
2017-01-09T11:09:37.625Z,23.1
2017-01-09T11:10:37.594Z,23.17
2017-01-09T11:11:37.898Z,23.17
2017-01-09T11:12:37.453Z,23.17
2017-01-09T11:13:37.382Z,23.12
2017-01-09T11:14:37.316Z,23.17
2017-01-09T11:15:37.259Z,23.18
2017-01-09T11:16:37.195Z,23.17
2017-01-09T11:17:37.134Z,23.18
2017-01-09T11:18:37.069Z,23.15
2017-01-09T11:19:37.009Z,23.17
2017-01-09T11:20:36.949Z,23.15
2017-01-09T11:21:36.881Z,23.13
2017-01-09T11:22:36.827Z,23.12
2017-01-09T11:23:37.149Z,23.17
2017-01-09T11:24:36.697Z,23.17
2017-01-09T11:25:51.521Z,23.12
2017-01-09T11:26:36.574Z,23.12
2017-01-09T11:27:36.907Z,23.17
2017-01-09T11:28:36.449Z,23.17
2017-01-09T11:29:36.385Z,23.17
2017-01-09T11:30:36.328Z,23.12
2017-01-09T11:31:36.263Z,23.13
2017-01-09T11:32:36.197Z,23.18
2017-01-09T11:33:36.144Z,23.09
2017-01-09T11:34:36.091Z,23.13
2017-01-09T11:35:36.014Z,23.12
2017-01-09T11:36:35.953Z,23.13
2017-01-09T11:37:36.287Z,23.12
2017-01-09T11:38:35.829Z,23.09
2017-01-09T11:39:35.764Z,23.15
2017-01-09T11:40:35.703Z,23.12
2017-01-09T11:41:35.640Z,23.13
2017-01-09T11:42:35.579Z,23.09
2017-01-09T11:43:35.520Z,23.09
2017-01-09T11:44:35.470Z,23.08
2017-01-09T11:45:35.391Z,23.1
2017-01-09T11:46:35.334Z,23.03
2017-01-09T11:47:35.269Z,23.09
2017-01-09T11:48:35.209Z,23.08
2017-01-09T11:49:35.143Z,23.06
2017-01-09T11:50:35.080Z,23.08
2017-01-09T11:51:35.020Z,23.12
2017-01-09T11:52:34.958Z,23.09
2017-01-09T11:53:34.896Z,23.09
2017-01-09T11:54:34.839Z,23.09
2017-01-09T11:55:34.779Z,23.06
2017-01-09T11:56:34.708Z,23.1
2017-01-09T11:57:34.642Z,23.1
2017-01-09T11:58:34.588Z,23.08
2017-01-09T11:59:34.519Z,23.2
2017-01-09T12:00:34.459Z,23.1
2017-01-09T12:01:34.393Z,23.17
2017-01-09T12:02:34.333Z,23.12
2017-01-09T12:03:34.277Z,23.09
2017-01-09T12:04:34.215Z,23.18
2017-01-09T12:05:34.148Z,23.09
2017-01-09T12:06:34.087Z,23.09
2017-01-09T12:07:34.024Z,23.12
2017-01-09T12:08:33.964Z,23.09
2017-01-09T12:09:33.897Z,23.17
2017-01-09T12:10:33.834Z,23.09
2017-01-09T12:11:33.782Z,23.12
2017-01-09T12:12:33.721Z,23.08
2017-01-09T12:13:33.654Z,23.13
2017-01-09T12:14:33.624Z,23.1
2017-01-09T12:15:33.540Z,23.13
2017-01-09T12:16:33.462Z,23.1
2017-01-09T12:17:33.404Z,23.12
2017-01-09T12:18:33.338Z,23.15
2017-01-09T12:19:33.277Z,23.15
2017-01-09T12:20:33.215Z,23.17
2017-01-09T12:21:33.157Z,23.21
2017-01-09T12:22:33.108Z,23.13
2017-01-09T12:23:33.039Z,23.18
2017-01-09T12:24:32.998Z,23.18
2017-01-09T12:25:32.903Z,23.12
2017-01-09T12:26:32.851Z,23.12
2017-01-09T12:27:32.787Z,23.25
2017-01-09T12:28:32.723Z,23.15
2017-01-09T12:29:32.655Z,23.21
2017-01-09T12:30:32.591Z,23.21
2017-01-09T12:31:32.667Z,23.21
2017-01-09T12:32:32.470Z,23.17
2017-01-09T12:33:32.410Z,23.15
2017-01-09T12:34:32.365Z,23.23
2017-01-09T12:35:32.288Z,23.21
2017-01-09T12:36:32.226Z,23.15
2017-01-09T12:37:32.167Z,23.21
2017-01-09T12:38:32.098Z,23.23
2017-01-09T12:39:32.044Z,23.23
2017-01-09T12:40:31.981Z,23.24
2017-01-09T12:41:31.910Z,23.21
2017-01-09T12:42:31.849Z,23.23
2017-01-09T12:43:31.791Z,23.23
2017-01-09T12:44:31.724Z,23.27
2017-01-09T12:45:31.664Z,23.25
2017-01-09T12:46:31.606Z,23.15
2017-01-09T12:47:31.539Z,23.24
2017-01-09T12:48:31.480Z,23.23
2017-01-09T12:49:31.417Z,23.27
2017-01-09T12:50:31.356Z,23.21
2017-01-09T12:51:31.293Z,23.28
2017-01-09T12:52:31.236Z,23.21
2017-01-09T12:53:31.192Z,23.24
2017-01-09T12:54:31.108Z,23.21
2017-01-09T12:55:31.054Z,23.23